createdAt,value
2022-12-18T00:01:29.603Z,-5.07
2022-12-18T00:03:57.173Z,-5.03
2022-12-18T00:06:26.320Z,-5.02
2022-12-18T00:08:55.746Z,-5.10
2022-12-18T00:11:24.836Z,-5.40
2022-12-18T00:13:52.056Z,-4.89
2022-12-18T00:16:21.653Z,-5.04
2022-12-18T00:18:49.343Z,-5.10
2022-12-18T00:21:16.476Z,-5.06
2022-12-18T00:23:44.817Z,-5.26
2022-12-18T00:26:17.776Z,-5.34
2022-12-18T00:28:45.448Z,-5.40
2022-12-18T00:31:14.815Z,-5.16
2022-12-18T00:33:42.290Z,-5.57
2022-12-18T00:36:12.688Z,-5.53
2022-12-18T00:38:39.715Z,-5.34
2022-12-18T00:41:08.608Z,-5.39
2022-12-18T00:43:35.610Z,-5.36
2022-12-18T00:46:02.580Z,-5.45
2022-12-18T00:48:29.586Z,-5.35
2022-12-18T00:50:56.168Z,-5.40
2022-12-18T00:53:22.835Z,-5.59
2022-12-18T00:55:49.316Z,-5.48
2022-12-18T00:58:17.458Z,-5.61
2022-12-18T01:00:44.402Z,-5.75
2022-12-18T01:03:14.355Z,-5.81
2022-12-18T01:05:42.566Z,-5.81
2022-12-18T01:08:09.020Z,-5.75
2022-12-18T01:10:35.492Z,-5.81
2022-12-18T01:13:02.030Z,-5.71
2022-12-18T01:15:28.497Z,-5.77
2022-12-18T01:17:54.973Z,-5.79
2022-12-18T01:20:21.740Z,-6.19
2022-12-18T01:22:48.339Z,-5.92
2022-12-18T01:25:14.825Z,-6.36
2022-12-18T01:27:41.294Z,-6.03
2022-12-18T01:30:08.488Z,-5.98
2022-12-18T01:32:35.007Z,-6.05
2022-12-18T01:35:01.532Z,-6.05
2022-12-18T01:37:28.044Z,-6.04
2022-12-18T01:39:54.547Z,-6.14
2022-12-18T01:42:21.921Z,-5.96
2022-12-18T01:44:54.323Z,-6.01
2022-12-18T01:47:56.396Z,-6.09
2022-12-18T01:50:46.389Z,-6.05
2022-12-18T01:53:20.065Z,-6.36
2022-12-18T01:55:51.309Z,-6.40
2022-12-18T01:58:18.948Z,-6.94
2022-12-18T02:00:46.139Z,-6.14
2022-12-18T02:03:13.139Z,-6.15
2022-12-18T02:06:22.943Z,-6.15
2022-12-18T02:08:54.286Z,-6.18
2022-12-18T02:11:33.833Z,-6.11
2022-12-18T02:14:29.205Z,-6.16
2022-12-18T02:17:11.416Z,-6.12
2022-12-18T02:20:02.496Z,-6.11
2022-12-18T02:23:06.624Z,-6.09
2022-12-18T02:25:56.319Z,-6.13
2022-12-18T02:28:29.417Z,-6.10
2022-12-18T02:31:02.067Z,-6.09
2022-12-18T02:33:31.605Z,-6.13
2022-12-18T02:36:00.472Z,-6.12
2022-12-18T02:38:31.821Z,-6.13
2022-12-18T02:40:59.641Z,-5.92
2022-12-18T02:43:26.263Z,-5.93
2022-12-18T02:45:58.872Z,-5.98
2022-12-18T02:48:32.954Z,-5.98
2022-12-18T02:51:13.781Z,-6.12
2022-12-18T02:53:54.458Z,-6.33
2022-12-18T02:56:27.367Z,-6.16
2022-12-18T02:59:09.055Z,-6.04
2022-12-18T03:01:44.128Z,-6.09
2022-12-18T03:04:21.480Z,-6.04
2022-12-18T03:06:54.320Z,-6.13
2022-12-18T03:09:27.715Z,-5.96
2022-12-18T03:12:01.166Z,-6.00
2022-12-18T03:14:32.128Z,-6.10
2022-12-18T03:17:08.640Z,-6.00
2022-12-18T03:19:38.965Z,-6.07
2022-12-18T03:22:08.639Z,-6.13
2022-12-18T03:24:38.032Z,-6.18
2022-12-18T03:27:11.192Z,-6.31
2022-12-18T03:29:52.979Z,-6.56
2022-12-18T03:32:29.937Z,-6.49
2022-12-18T03:35:02.691Z,-6.25
2022-12-18T03:37:29.301Z,-6.25
2022-12-18T03:39:56.006Z,-6.23
2022-12-18T03:42:46.971Z,-6.12
2022-12-18T03:45:37.444Z,-6.23
2022-12-18T03:48:29.945Z,-6.35
2022-12-18T03:51:29.367Z,-6.34
2022-12-18T03:54:04.156Z,-6.41
2022-12-18T03:56:34.531Z,-6.39
2022-12-18T03:59:03.780Z,-6.41
2022-12-18T04:01:36.427Z,-6.47
2022-12-18T04:04:05.387Z,-6.47
2022-12-18T04:06:33.531Z,-6.48
2022-12-18T04:09:00.495Z,-6.46
2022-12-18T04:11:27.124Z,-6.55
2022-12-18T04:13:57.802Z,-6.51
2022-12-18T04:16:25.694Z,-6.59
2022-12-18T04:18:52.311Z,-6.56
2022-12-18T04:21:18.820Z,-6.49
2022-12-18T04:23:45.273Z,-6.59
2022-12-18T04:26:11.839Z,-6.55
2022-12-18T04:28:38.346Z,-6.44
2022-12-18T04:31:06.384Z,-6.55
2022-12-18T04:33:33.381Z,-6.55
2022-12-18T04:35:59.919Z,-6.48
2022-12-18T04:38:26.542Z,-6.65
2022-12-18T04:40:53.096Z,-6.65
2022-12-18T04:43:19.758Z,-6.67
2022-12-18T04:45:46.442Z,-6.70
2022-12-18T04:48:13.109Z,-6.74
2022-12-18T04:50:40.091Z,-6.72
2022-12-18T04:53:07.715Z,-6.74
2022-12-18T04:55:35.113Z,-6.65
2022-12-18T04:58:01.776Z,-6.64
2022-12-18T05:00:28.256Z,-6.70
2022-12-18T05:02:54.882Z,-6.63
2022-12-18T05:05:21.485Z,-6.69
2022-12-18T05:07:47.971Z,-6.57
2022-12-18T05:10:14.681Z,-6.51
2022-12-18T05:12:41.221Z,-6.59
2022-12-18T05:15:08.292Z,-6.60
2022-12-18T05:17:34.927Z,-6.87
2022-12-18T05:20:01.461Z,-6.79
2022-12-18T05:22:27.994Z,-6.81
2022-12-18T05:24:54.624Z,-6.68
2022-12-18T05:27:21.168Z,-6.74
2022-12-18T05:29:47.964Z,-6.78
2022-12-18T05:32:14.493Z,-6.70
2022-12-18T05:34:40.988Z,-6.70
2022-12-18T05:37:07.462Z,-6.84
2022-12-18T05:39:34.606Z,-6.84
2022-12-18T05:42:01.079Z,-7.05
2022-12-18T05:44:27.787Z,-6.77
2022-12-18T05:46:55.147Z,-6.81
2022-12-18T05:49:21.671Z,-6.79
2022-12-18T05:51:48.201Z,-6.82
2022-12-18T05:54:14.698Z,-6.77
2022-12-18T05:56:47.005Z,-6.65
2022-12-18T05:59:15.195Z,-6.92
2022-12-18T06:01:41.831Z,-6.82
2022-12-18T06:04:08.659Z,-6.98
2022-12-18T06:06:37.969Z,-7.09
2022-12-18T06:09:06.162Z,-7.22
2022-12-18T06:11:33.223Z,-7.13
2022-12-18T06:14:00.701Z,-7.07
2022-12-18T06:16:28.825Z,-7.04
2022-12-18T06:19:00.118Z,-7.22
2022-12-18T06:21:28.107Z,-7.08
2022-12-18T06:23:54.696Z,-6.93
2022-12-18T06:26:27.660Z,-7.12
2022-12-18T06:28:54.741Z,-7.20
2022-12-18T06:31:21.250Z,-7.11
2022-12-18T06:33:47.820Z,-7.11
2022-12-18T06:36:15.027Z,-7.07
2022-12-18T06:38:44.104Z,-7.05
2022-12-18T06:41:13.291Z,-7.12
2022-12-18T06:43:40.266Z,-7.14
2022-12-18T06:46:07.813Z,-7.05
2022-12-18T06:48:34.699Z,-7.23
2022-12-18T06:51:01.621Z,-7.19
2022-12-18T06:53:28.653Z,-7.24
2022-12-18T06:56:13.106Z,-7.28
2022-12-18T06:58:40.306Z,-7.20
2022-12-18T07:01:09.320Z,-7.30
2022-12-18T07:03:36.270Z,-7.27
2022-12-18T07:06:03.656Z,-7.32
2022-12-18T07:08:31.151Z,-7.22
2022-12-18T07:10:57.857Z,-7.29
2022-12-18T07:13:24.502Z,-7.29
2022-12-18T07:15:50.959Z,-7.40
2022-12-18T07:18:18.534Z,-7.33
2022-12-18T07:20:45.399Z,-7.29
2022-12-18T07:23:12.877Z,-7.27
2022-12-18T07:25:41.640Z,-7.23
2022-12-18T07:28:11.699Z,-7.25
2022-12-18T07:30:42.386Z,-7.14
2022-12-18T07:33:08.855Z,-7.22
2022-12-18T07:35:35.453Z,-7.23
2022-12-18T07:38:01.990Z,-7.39
2022-12-18T07:40:28.725Z,-7.21
2022-12-18T07:42:55.425Z,-7.32
2022-12-18T07:45:21.915Z,-7.44
2022-12-18T07:47:48.545Z,-7.39
2022-12-18T07:50:15.103Z,-7.39
2022-12-18T07:52:41.547Z,-7.24
2022-12-18T07:55:10.939Z,-7.32
2022-12-18T07:57:57.619Z,-7.28
2022-12-18T08:00:24.045Z,-7.30
2022-12-18T08:02:50.621Z,-7.33
2022-12-18T08:05:17.424Z,-7.20
2022-12-18T08:07:43.917Z,-7.21
2022-12-18T08:10:10.698Z,-7.22
2022-12-18T08:12:37.327Z,-7.12
2022-12-18T08:15:04.229Z,-7.21
2022-12-18T08:17:31.582Z,-7.15
2022-12-18T08:19:58.152Z,-7.11
2022-12-18T08:22:25.001Z,-7.07
2022-12-18T08:24:51.556Z,-7.06
2022-12-18T08:27:29.513Z,-6.98
2022-12-18T08:29:57.035Z,-7.01
2022-12-18T08:32:24.459Z,-6.94
2022-12-18T08:34:51.355Z,-6.83
2022-12-18T08:37:17.915Z,-6.93
2022-12-18T08:39:44.490Z,-6.84
2022-12-18T08:42:11.236Z,-6.80
2022-12-18T08:44:38.144Z,-6.61
2022-12-18T08:47:08.246Z,-6.42
2022-12-18T08:49:35.946Z,-6.58
2022-12-18T08:52:02.829Z,-6.49
2022-12-18T08:54:29.831Z,-6.37
2022-12-18T08:56:56.417Z,-6.40
2022-12-18T08:59:22.882Z,-6.22
2022-12-18T09:01:50.227Z,-6.40
2022-12-18T09:04:17.100Z,-6.26
2022-12-18T09:06:43.719Z,-6.00
2022-12-18T09:09:10.990Z,-5.87
2022-12-18T09:11:38.140Z,-5.96
2022-12-18T09:14:04.962Z,-5.77
2022-12-18T09:16:33.032Z,-5.82
2022-12-18T09:19:00.692Z,-5.96
2022-12-18T09:21:30.308Z,-5.75
2022-12-18T09:23:57.311Z,-5.65
2022-12-18T09:26:25.041Z,-5.50
2022-12-18T09:28:51.640Z,-5.48
2022-12-18T09:31:21.011Z,-5.28
2022-12-18T09:33:47.678Z,-5.35
2022-12-18T09:36:16.691Z,-5.38
2022-12-18T09:38:43.688Z,-5.41
2022-12-18T09:41:52.904Z,-5.38
2022-12-18T09:44:29.707Z,-5.26
2022-12-18T09:47:05.647Z,-4.99
2022-12-18T09:49:40.561Z,-5.09
2022-12-18T09:52:22.640Z,-4.90
2022-12-18T09:55:01.265Z,-4.51
2022-12-18T09:57:28.007Z,-4.40
2022-12-18T10:00:00.020Z,-4.57
2022-12-18T10:02:27.830Z,-4.49
2022-12-18T10:05:05.493Z,-4.42
2022-12-18T10:07:50.798Z,-4.39
2022-12-18T10:10:23.129Z,-4.41
2022-12-18T10:13:13.870Z,-4.31
2022-12-18T10:16:01.393Z,-4.19
2022-12-18T10:18:37.013Z,-4.14
2022-12-18T10:21:30.724Z,-4.16
2022-12-18T10:24:15.516Z,-4.40
2022-12-18T10:26:42.787Z,-4.30
2022-12-18T10:29:15.102Z,-3.93
2022-12-18T10:31:42.082Z,-4.28
2022-12-18T10:34:12.727Z,-4.14
2022-12-18T10:36:39.641Z,-4.03
2022-12-18T10:39:24.473Z,-4.19
2022-12-18T10:41:51.114Z,-4.33
2022-12-18T10:44:23.720Z,-4.00
2022-12-18T10:46:55.056Z,-4.04
2022-12-18T10:49:31.126Z,-4.27
2022-12-18T10:52:23.940Z,-3.87
2022-12-18T10:54:54.412Z,-3.81
2022-12-18T10:57:34.631Z,-3.73
2022-12-18T11:00:20.224Z,-3.76
2022-12-18T11:02:47.051Z,-3.65
2022-12-18T11:05:46.176Z,-3.95
2022-12-18T11:08:22.114Z,-3.62
2022-12-18T11:10:48.752Z,-3.61
2022-12-18T11:13:24.283Z,-3.80
2022-12-18T11:15:51.741Z,-3.31
2022-12-18T11:18:23.333Z,-3.34
2022-12-18T11:20:59.734Z,-3.53
2022-12-18T11:23:28.167Z,-3.08
2022-12-18T11:26:00.423Z,-3.21
2022-12-18T11:28:43.311Z,-3.39
2022-12-18T11:31:16.138Z,-3.40
2022-12-18T11:34:19.650Z,-3.35
2022-12-18T11:36:42.381Z,-3.34
2022-12-18T11:39:21.243Z,-3.45
2022-12-18T11:41:58.755Z,-3.21
2022-12-18T11:44:39.357Z,-3.09
2022-12-18T11:47:17.993Z,-3.08
2022-12-18T11:49:44.681Z,-3.29
2022-12-18T11:52:19.730Z,-3.09
2022-12-18T11:54:46.327Z,-3.13
2022-12-18T11:57:36.552Z,-3.12
2022-12-18T12:00:03.016Z,-2.93
2022-12-18T12:02:40.265Z,-3.08
2022-12-18T12:05:46.428Z,-3.00
2022-12-18T12:08:12.944Z,-2.79
2022-12-18T12:10:45.538Z,-2.85
2022-12-18T12:13:33.687Z,-2.91
2022-12-18T12:16:15.216Z,-3.18
2022-12-18T12:18:56.652Z,-2.84
2022-12-18T12:21:33.601Z,-2.92
2022-12-18T12:24:06.175Z,-2.91
2022-12-18T12:26:47.997Z,-2.89
2022-12-18T12:29:26.826Z,-2.73
2022-12-18T12:32:29.603Z,-2.59
2022-12-18T12:35:09.383Z,-2.59
2022-12-18T12:37:53.500Z,-2.65
2022-12-18T12:40:50.314Z,-2.65
2022-12-18T12:43:28.025Z,-2.66
2022-12-18T12:45:58.537Z,-2.61
2022-12-18T12:48:34.419Z,-2.75
2022-12-18T12:51:11.410Z,-2.71
2022-12-18T12:53:40.419Z,-2.81
2022-12-18T12:56:10.920Z,-2.70
2022-12-18T12:58:56.750Z,-2.63
2022-12-18T13:01:32.734Z,-2.85
2022-12-18T13:04:43.893Z,-2.69
2022-12-18T13:07:47.879Z,-2.59
2022-12-18T13:10:17.816Z,-2.47
2022-12-18T13:13:10.420Z,-2.59
2022-12-18T13:15:46.263Z,-2.86
2022-12-18T13:18:15.500Z,-2.59
2022-12-18T13:21:03.786Z,-2.46
2022-12-18T13:23:40.750Z,-2.47
2022-12-18T13:26:07.647Z,-2.36
2022-12-18T13:28:34.597Z,-2.50
2022-12-18T13:31:02.748Z,-2.54
2022-12-18T13:33:29.605Z,-2.29
2022-12-18T13:36:14.738Z,-2.54
2022-12-18T13:38:43.112Z,-2.47
2022-12-18T13:41:26.259Z,-2.29
2022-12-18T13:43:55.072Z,-2.47
2022-12-18T13:46:24.514Z,-2.49
2022-12-18T13:48:55.882Z,-2.51
2022-12-18T13:51:23.947Z,-2.42
2022-12-18T13:53:52.028Z,-2.34
2022-12-18T13:56:22.738Z,-2.41
2022-12-18T13:59:11.711Z,-2.31
2022-12-18T14:01:54.132Z,-2.35
2022-12-18T14:04:32.160Z,-2.24
2022-12-18T14:07:06.742Z,-2.16
2022-12-18T14:09:41.829Z,-2.38
2022-12-18T14:12:17.980Z,-2.29
2022-12-18T14:14:47.839Z,-2.30
2022-12-18T14:17:16.975Z,-2.43
2022-12-18T14:19:47.126Z,-2.45
2022-12-18T14:22:26.583Z,-2.44
2022-12-18T14:25:20.331Z,-2.35
2022-12-18T14:28:06.957Z,-2.21
2022-12-18T14:30:37.703Z,-2.29
2022-12-18T14:33:14.852Z,-2.17
2022-12-18T14:36:02.396Z,-2.20
2022-12-18T14:38:42.005Z,-2.23
2022-12-18T14:41:17.239Z,-2.44
2022-12-18T14:43:46.641Z,-2.42
2022-12-18T14:46:30.027Z,-2.26
2022-12-18T14:48:58.093Z,-2.28
2022-12-18T14:51:31.264Z,-2.37
2022-12-18T14:54:00.896Z,-2.35
2022-12-18T14:56:33.487Z,-2.27
2022-12-18T14:59:02.570Z,-2.28
2022-12-18T15:01:33.410Z,-2.36
2022-12-18T15:04:03.077Z,-2.34
2022-12-18T15:06:31.515Z,-2.25
2022-12-18T15:08:59.856Z,-2.25
2022-12-18T15:11:32.991Z,-2.33
2022-12-18T15:13:59.594Z,-2.26
2022-12-18T15:16:26.371Z,-2.32
2022-12-18T15:18:54.266Z,-2.27
2022-12-18T15:21:22.015Z,-2.26
2022-12-18T15:23:51.713Z,-2.22
2022-12-18T15:26:21.552Z,-2.25
2022-12-18T15:28:56.321Z,-2.23
2022-12-18T15:31:30.231Z,-2.22
2022-12-18T15:33:56.824Z,-2.20
2022-12-18T15:36:26.182Z,-2.24
2022-12-18T15:38:55.167Z,-2.28
2022-12-18T15:41:25.649Z,-2.11
2022-12-18T15:43:53.775Z,-2.16
2022-12-18T15:46:21.836Z,-2.34
2022-12-18T15:49:01.698Z,-2.14
2022-12-18T15:51:30.759Z,-2.11
2022-12-18T15:53:59.679Z,-2.08
2022-12-18T15:56:26.629Z,-2.08
2022-12-18T15:58:53.161Z,-2.15
2022-12-18T16:01:19.842Z,-2.13
2022-12-18T16:03:46.644Z,-2.03
2022-12-18T16:06:13.736Z,-1.99
2022-12-18T16:08:40.361Z,-1.94
2022-12-18T16:11:21.764Z,-1.95
2022-12-18T16:13:48.449Z,-1.92
2022-12-18T16:16:15.260Z,-2.03
2022-12-18T16:18:42.084Z,-1.92
2022-12-18T16:21:09.621Z,-1.90
2022-12-18T16:23:36.237Z,-2.07
2022-12-18T16:26:02.834Z,-1.94
2022-12-18T16:28:29.365Z,-1.82
2022-12-18T16:30:55.874Z,-1.86
2022-12-18T16:33:22.435Z,-1.79
2022-12-18T16:35:54.844Z,-1.85
2022-12-18T16:38:21.385Z,-1.75
2022-12-18T16:40:48.209Z,-1.70
2022-12-18T16:43:16.526Z,-1.67
2022-12-18T16:45:43.865Z,-1.63
2022-12-18T16:48:10.400Z,-1.67
2022-12-18T16:50:37.121Z,-1.60
2022-12-18T16:53:03.826Z,-1.52
2022-12-18T16:55:30.707Z,-1.52
2022-12-18T16:57:57.761Z,-1.47
2022-12-18T17:00:24.381Z,-1.44
2022-12-18T17:02:51.320Z,-1.38
2022-12-18T17:05:17.992Z,-1.49
2022-12-18T17:07:44.596Z,-1.29
2022-12-18T17:10:11.213Z,-1.28
2022-12-18T17:12:37.700Z,-1.28
2022-12-18T17:15:04.613Z,-1.19
2022-12-18T17:17:31.153Z,-1.20
2022-12-18T17:19:57.755Z,-1.24
2022-12-18T17:22:24.260Z,-1.16
2022-12-18T17:24:50.860Z,-1.23
2022-12-18T17:27:17.408Z,-1.07
2022-12-18T17:29:47.904Z,-1.06
2022-12-18T17:32:15.978Z,-1.10
2022-12-18T17:34:44.887Z,-1.20
2022-12-18T17:37:11.416Z,-1.07
2022-12-18T17:39:38.326Z,-1.07
2022-12-18T17:42:05.226Z,-1.10
2022-12-18T17:44:32.528Z,-1.01
2022-12-18T17:46:59.189Z,-1.02
2022-12-18T17:49:25.934Z,-0.94
2022-12-18T17:51:52.549Z,-0.92
2022-12-18T17:54:19.754Z,-1.01
2022-12-18T17:56:46.357Z,-0.90
2022-12-18T17:59:13.146Z,-0.84
2022-12-18T18:01:44.397Z,-0.86
2022-12-18T18:04:13.292Z,-0.96
2022-12-18T18:06:40.127Z,-0.98
2022-12-18T18:09:10.015Z,-0.92
2022-12-18T18:11:45.914Z,-0.83
2022-12-18T18:14:19.165Z,-0.82
2022-12-18T18:16:48.202Z,-0.83
2022-12-18T18:19:17.622Z,-0.91
2022-12-18T18:21:47.715Z,-0.81
2022-12-18T18:24:17.980Z,-0.98
2022-12-18T18:26:45.021Z,-0.85
2022-12-18T18:29:15.935Z,-0.96
2022-12-18T18:31:43.058Z,-0.82
2022-12-18T18:34:18.727Z,-0.95
2022-12-18T18:36:45.406Z,-0.89
2022-12-18T18:39:12.970Z,-0.92
2022-12-18T18:41:39.548Z,-0.83
2022-12-18T18:44:06.622Z,-0.89
2022-12-18T18:46:33.449Z,-0.88
2022-12-18T18:48:59.897Z,-0.91
2022-12-18T18:51:31.445Z,-0.90
2022-12-18T18:54:01.554Z,-0.89
2022-12-18T18:56:56.183Z,-0.90
2022-12-18T18:59:15.038Z,-0.93
2022-12-18T19:01:41.664Z,-0.94
2022-12-18T19:04:08.877Z,-0.84
2022-12-18T19:06:35.517Z,-0.87
2022-12-18T19:09:03.899Z,-0.89
2022-12-18T19:11:35.927Z,-0.84
2022-12-18T19:14:06.116Z,-0.86
2022-12-18T19:16:33.496Z,-1.00
2022-12-18T19:19:01.898Z,-0.97
2022-12-18T19:21:29.358Z,-0.94
2022-12-18T19:23:59.317Z,-1.01
2022-12-18T19:26:28.214Z,-0.88
2022-12-18T19:29:04.732Z,-0.84
2022-12-18T19:31:35.653Z,-0.79
2022-12-18T19:34:04.233Z,-0.92
2022-12-18T19:36:35.092Z,-0.81
2022-12-18T19:39:02.093Z,-0.81
2022-12-18T19:41:32.964Z,-0.82
2022-12-18T19:44:02.252Z,-0.84
2022-12-18T19:46:35.574Z,-0.77
2022-12-18T19:49:02.711Z,-0.76
2022-12-18T19:51:31.364Z,-0.75
2022-12-18T19:54:01.214Z,-0.81
2022-12-18T19:56:31.572Z,-0.77
2022-12-18T19:58:58.489Z,-0.73
2022-12-18T20:01:26.298Z,-0.73
2022-12-18T20:03:54.462Z,-0.72
2022-12-18T20:06:46.706Z,-0.69
2022-12-18T20:09:13.491Z,-0.72
2022-12-18T20:11:41.952Z,-0.74
2022-12-18T20:14:10.106Z,-0.71
2022-12-18T20:16:36.729Z,-0.82
2022-12-18T20:19:03.768Z,-0.76
2022-12-18T20:21:30.469Z,-0.70
2022-12-18T20:23:57.017Z,-0.73
2022-12-18T20:26:23.913Z,-0.71
2022-12-18T20:28:50.468Z,-0.74
2022-12-18T20:31:17.242Z,-0.65
2022-12-18T20:33:47.632Z,-0.73
2022-12-18T20:36:21.134Z,-0.78
2022-12-18T20:38:49.964Z,-0.59
2022-12-18T20:41:19.174Z,-0.75
2022-12-18T20:43:46.200Z,-0.64
2022-12-18T20:46:14.961Z,-0.59
2022-12-18T20:48:42.349Z,-0.63
2022-12-18T20:51:17.387Z,-0.54
2022-12-18T20:53:45.611Z,-0.52
2022-12-18T20:56:20.850Z,-0.47
2022-12-18T20:58:55.138Z,-0.49
2022-12-18T21:01:23.082Z,-0.56
2022-12-18T21:03:50.723Z,-0.47
2022-12-18T21:06:20.183Z,-0.40
2022-12-18T21:08:47.302Z,-0.43
2022-12-18T21:11:19.976Z,-0.39
2022-12-18T21:13:46.506Z,-0.34
2022-12-18T21:16:13.067Z,-0.46
2022-12-18T21:18:39.594Z,-0.32
2022-12-18T21:21:06.173Z,-0.34
2022-12-18T21:23:32.800Z,-0.28
2022-12-18T21:26:24.461Z,-0.30
2022-12-18T21:28:55.835Z,-0.22
2022-12-18T21:31:25.291Z,-0.33
2022-12-18T21:33:54.659Z,-0.21
2022-12-18T21:36:28.157Z,-0.17
2022-12-18T21:38:55.639Z,-0.14
2022-12-18T21:41:23.329Z,-0.19
2022-12-18T21:43:50.237Z,-0.16
2022-12-18T21:46:16.786Z,-0.06
2022-12-18T21:48:43.461Z,-0.06
2022-12-18T21:51:10.379Z,-0.04
2022-12-18T21:53:37.032Z,-0.05
2022-12-18T21:56:03.682Z,-0.03
2022-12-18T21:58:30.586Z,0.01
2022-12-18T22:00:57.115Z,0.05
2022-12-18T22:03:24.253Z,0.09
2022-12-18T22:05:53.975Z,0.05
2022-12-18T22:08:35.765Z,0.10
2022-12-18T22:11:06.395Z,0.07
2022-12-18T22:13:32.986Z,0.08
2022-12-18T22:15:59.477Z,0.16
2022-12-18T22:18:25.992Z,0.06
2022-12-18T22:21:04.997Z,0.30
2022-12-18T22:23:32.005Z,0.34
2022-12-18T22:25:58.530Z,0.37
2022-12-18T22:28:25.098Z,0.35
2022-12-18T22:30:52.699Z,0.36
2022-12-18T22:33:26.001Z,0.42
2022-12-18T22:35:52.484Z,0.23
2022-12-18T22:38:18.979Z,0.46
2022-12-18T22:40:45.749Z,0.33
2022-12-18T22:43:12.500Z,0.50
2022-12-18T22:45:38.986Z,0.50
2022-12-18T22:48:05.947Z,0.44
2022-12-18T22:50:35.332Z,0.54
2022-12-18T22:53:01.863Z,0.49
2022-12-18T22:55:28.350Z,0.55
2022-12-18T22:57:54.898Z,0.51
2022-12-18T23:00:24.588Z,0.50
2022-12-18T23:02:59.473Z,0.55
2022-12-18T23:05:27.651Z,0.63
2022-12-18T23:07:54.177Z,0.54
2022-12-18T23:10:20.623Z,0.72
2022-12-18T23:12:47.270Z,0.66
2022-12-18T23:15:13.996Z,0.74
2022-12-18T23:17:42.685Z,0.77
2022-12-18T23:20:09.764Z,0.67
2022-12-18T23:22:36.394Z,0.90
2022-12-18T23:25:02.981Z,1.05
2022-12-18T23:27:29.544Z,0.93
2022-12-18T23:29:56.014Z,0.72
2022-12-18T23:32:25.062Z,0.74
2022-12-18T23:34:51.544Z,1.03
2022-12-18T23:37:35.302Z,1.00
2022-12-18T23:40:05.154Z,1.05
2022-12-18T23:42:31.705Z,0.97
2022-12-18T23:44:58.259Z,1.13
2022-12-18T23:47:26.245Z,1.12
2022-12-18T23:49:52.851Z,1.14
2022-12-18T23:52:19.437Z,1.14
2022-12-18T23:54:46.103Z,0.99
2022-12-18T23:57:12.678Z,0.99
2022-12-18T23:59:39.165Z,1.16
